Time,TemperatureF,DewpointF,PressureIn,WindDirection,WindDirectionDegrees,WindSpeedMPH,WindSpeedGustMPH,Humidity,HourlyPrecipIn,Conditions,Clouds,dailyrainin,SoftwareType,DateUTC
2013-05-21 00:02:00,71.0,23.0,29.70,NNW,331,4.0,12.0,16,0.00,,,0.00,,2013-05-21 06:02:00,
2013-05-21 00:12:00,71.0,23.0,29.70,NNW,331,4.0,12.0,16,0.00,,,0.00,,2013-05-21 06:12:00,
2013-05-21 00:21:00,70.0,25.0,29.72,North,6,1.0,5.0,18,0.00,,,0.00,,2013-05-21 06:21:00,
2013-05-21 00:32:00,69.0,24.0,29.72,NNE,25,2.0,11.0,18,0.00,,,0.00,,2013-05-21 06:32:00,
2013-05-21 00:42:00,69.0,24.0,29.72,NNE,25,2.0,11.0,18,0.00,,,0.00,,2013-05-21 06:42:00,
2013-05-21 00:52:00,69.0,24.0,29.72,North,8,2.0,9.0,18,0.00,,,0.00,,2013-05-21 06:52:00,
2013-05-21 01:01:00,68.0,20.0,29.73,NNW,329,3.0,7.0,16,0.00,,,0.00,,2013-05-21 07:01:00,
2013-05-21 01:11:00,68.0,20.0,29.73,NNW,329,3.0,7.0,16,0.00,,,0.00,,2013-05-21 07:11:00,
2013-05-21 01:22:00,68.0,22.0,29.74,North,350,1.0,9.0,17,0.00,,,0.00,,2013-05-21 07:22:00,
2013-05-21 01:31:00,67.0,22.0,29.74,North,9,1.0,6.0,18,0.00,,,0.00,,2013-05-21 07:31:00,
2013-05-21 01:41:00,67.0,22.0,29.74,North,9,1.0,6.0,18,0.00,,,0.00,,2013-05-21 07:41:00,
2013-05-21 01:52:00,66.0,21.0,29.74,NNW,348,1.0,6.0,18,0.00,,,0.00,,2013-05-21 07:52:00,
2013-05-21 02:02:00,65.0,25.0,29.74,North,359,0.0,4.0,22,0.00,,,0.00,,2013-05-21 08:02:00,
2013-05-21 02:11:00,65.0,25.0,29.74,North,359,0.0,4.0,22,0.00,,,0.00,,2013-05-21 08:11:00,
2013-05-21 02:21:00,63.0,27.0,29.74,North,9,0.0,0.0,25,0.00,,,0.00,,2013-05-21 08:21:00,
2013-05-21 02:31:00,62.0,25.0,29.74,NW,304,0.0,3.0,24,0.00,,,0.00,,2013-05-21 08:31:00,
2013-05-21 02:41:00,64.0,26.0,29.74,NE,34,3.0,7.0,24,0.00,,,0.00,,2013-05-21 08:41:00,
2013-05-21 02:52:00,64.0,26.0,29.74,NE,34,3.0,7.0,24,0.00,,,0.00,,2013-05-21 08:52:00,
2013-05-21 03:01:00,65.0,26.0,29.74,NE,51,3.0,9.0,23,0.00,,,0.00,,2013-05-21 09:01:00,
2013-05-21 03:11:00,65.0,26.0,29.74,NE,51,3.0,9.0,23,0.00,,,0.00,,2013-05-21 09:11:00,
2013-05-21 03:21:00,64.0,25.0,29.74,NNE,21,3.0,7.0,23,0.00,,,0.00,,2013-05-21 09:21:00,
2013-05-21 03:32:00,64.0,26.0,29.74,NE,39,1.0,7.0,24,0.00,,,0.00,,2013-05-21 09:32:00,
2013-05-21 03:42:00,64.0,26.0,29.74,NE,39,1.0,7.0,24,0.00,,,0.00,,2013-05-21 09:42:00,
2013-05-21 03:52:00,62.0,28.0,29.74,North,354,1.0,5.0,27,0.00,,,0.00,,2013-05-21 09:52:00,
2013-05-21 04:02:00,62.0,28.0,29.74,NNW,343,1.0,5.0,27,0.00,,,0.00,,2013-05-21 10:02:00,
2013-05-21 04:12:00,62.0,28.0,29.74,NNW,343,1.0,5.0,27,0.00,,,0.00,,2013-05-21 10:12:00,
2013-05-21 04:22:00,62.0,28.0,29.75,NNE,29,2.0,6.0,27,0.00,,,0.00,,2013-05-21 10:22:00,
2013-05-21 04:32:00,61.0,28.0,29.75,NNW,337,0.0,6.0,28,0.00,,,0.00,,2013-05-21 10:32:00,
2013-05-21 04:42:00,61.0,28.0,29.75,NNW,337,0.0,6.0,28,0.00,,,0.00,,2013-05-21 10:42:00,
2013-05-21 04:52:00,60.0,28.0,29.75,NNW,331,1.0,5.0,30,0.00,,,0.00,,2013-05-21 10:52:00,
2013-05-21 05:02:00,60.0,28.0,29.75,NNW,346,0.0,2.0,30,0.00,,,0.00,,2013-05-21 11:02:00,
2013-05-21 05:12:00,60.0,28.0,29.75,NNW,346,0.0,2.0,30,0.00,,,0.00,,2013-05-21 11:12:00,
2013-05-21 05:21:00,59.0,29.0,29.76,NNE,16,0.0,4.0,32,0.00,,,0.00,,2013-05-21 11:21:00,
2013-05-21 05:32:00,58.0,31.0,29.76,ENE,65,0.0,1.0,35,0.00,,,0.00,,2013-05-21 11:32:00,
2013-05-21 05:41:00,58.0,31.0,29.76,ENE,65,0.0,1.0,35,0.00,,,0.00,,2013-05-21 11:41:00,
2013-05-21 05:51:00,56.0,30.0,29.77,ENE,65,0.0,0.0,37,0.00,,,0.00,,2013-05-21 11:51:00,
2013-05-21 06:01:00,54.0,30.0,29.77,ENE,65,0.0,0.0,40,0.00,,,0.00,,2013-05-21 12:01:00,
2013-05-21 06:11:00,54.0,30.0,29.77,ENE,65,0.0,0.0,40,0.00,,,0.00,,2013-05-21 12:11:00,
2013-05-21 06:21:00,53.0,32.0,29.78,ESE,121,0.0,1.0,45,0.00,,,0.00,,2013-05-21 12:21:00,
2013-05-21 06:32:00,52.0,30.0,29.78,ESE,121,0.0,0.0,43,0.00,,,0.00,,2013-05-21 12:32:00,
2013-05-21 06:42:00,52.0,30.0,29.78,ESE,121,0.0,0.0,43,0.00,,,0.00,,2013-05-21 12:42:00,
2013-05-21 06:51:00,52.0,31.0,29.79,ESE,121,0.0,0.0,45,0.00,,,0.00,,2013-05-21 12:51:00,
2013-05-21 07:01:00,51.0,34.0,29.80,ESE,121,0.0,0.0,52,0.00,,,0.00,,2013-05-21 13:01:00,
2013-05-21 07:12:00,51.0,34.0,29.80,ESE,121,0.0,0.0,52,0.00,,,0.00,,2013-05-21 13:12:00,
2013-05-21 07:22:00,52.0,34.0,29.80,ESE,121,0.0,0.0,50,0.00,,,0.00,,2013-05-21 13:22:00,
2013-05-21 07:32:00,54.0,34.0,29.81,ESE,121,0.0,0.0,46,0.00,,,0.00,,2013-05-21 13:32:00,
2013-05-21 07:41:00,54.0,34.0,29.81,ESE,121,0.0,0.0,46,0.00,,,0.00,,2013-05-21 13:41:00,
2013-05-21 07:52:00,55.0,35.0,29.82,ESE,121,0.0,0.0,46,0.00,,,0.00,,2013-05-21 13:52:00,
2013-05-21 08:01:00,57.0,35.0,29.81,ESE,121,0.0,1.0,44,0.00,,,0.00,,2013-05-21 14:01:00,
2013-05-21 08:11:00,57.0,35.0,29.81,ESE,121,0.0,1.0,44,0.00,,,0.00,,2013-05-21 14:11:00,
2013-05-21 08:21:00,59.0,35.0,29.81,NE,40,0.0,1.0,40,0.00,,,0.00,,2013-05-21 14:21:00,
2013-05-21 08:32:00,61.0,35.0,29.81,NNE,26,0.0,1.0,38,0.00,,,0.00,,2013-05-21 14:32:00,
2013-05-21 08:41:00,61.0,35.0,29.81,NNE,26,0.0,1.0,38,0.00,,,0.00,,2013-05-21 14:41:00,
2013-05-21 08:51:00,65.0,35.0,29.82,NNE,26,0.0,2.0,33,0.00,,,0.00,,2013-05-21 14:51:00,
2013-05-21 09:01:00,67.0,42.0,29.82,West,261,0.0,2.0,40,0.00,,,0.00,,2013-05-21 15:01:00,
2013-05-21 09:11:00,67.0,42.0,29.82,West,261,0.0,2.0,40,0.00,,,0.00,,2013-05-21 15:11:00,
2013-05-21 09:21:00,69.0,39.0,29.82,WNW,302,1.0,4.0,33,0.00,,,0.00,,2013-05-21 15:21:00,
2013-05-21 09:33:00,70.0,33.0,29.82,NE,51,2.0,6.0,25,0.00,,,0.00,,2013-05-21 15:33:00,
2013-05-21 09:42:00,70.0,34.0,29.82,West,273,1.0,3.0,27,0.00,,,0.00,,2013-05-21 15:42:00,
2013-05-21 09:52:00,70.0,34.0,29.82,West,273,1.0,3.0,27,0.00,,,0.00,,2013-05-21 15:52:00,
2013-05-21 10:03:00,72.0,33.0,29.81,North,5,0.0,5.0,24,0.00,,,0.00,,2013-05-21 16:03:00,
2013-05-21 10:12:00,72.0,33.0,29.81,North,5,0.0,5.0,24,0.00,,,0.00,,2013-05-21 16:12:00,
2013-05-21 10:23:00,73.0,37.0,29.80,ENE,65,0.0,5.0,27,0.00,,,0.00,,2013-05-21 16:23:00,
2013-05-21 10:32:00,74.0,34.0,29.80,WNW,302,2.0,6.0,23,0.00,,,0.00,,2013-05-21 16:32:00,
2013-05-21 10:42:00,75.0,32.0,29.80,ENE,71,1.0,7.0,21,0.00,,,0.00,,2013-05-21 16:42:00,
2013-05-21 10:52:00,75.0,32.0,29.80,ENE,71,1.0,7.0,21,0.00,,,0.00,,2013-05-21 16:52:00,
2013-05-21 11:02:00,76.0,37.0,29.79,NNE,26,3.0,7.0,24,0.00,,,0.00,,2013-05-21 17:02:00,
2013-05-21 11:12:00,76.0,37.0,29.79,NNE,26,3.0,7.0,24,0.00,,,0.00,,2013-05-21 17:12:00,
2013-05-21 11:23:00,77.0,37.0,29.79,NNW,328,1.0,6.0,24,0.00,,,0.00,,2013-05-21 17:23:00,
2013-05-21 11:32:00,77.0,32.0,29.79,West,276,0.0,9.0,19,0.00,,,0.00,,2013-05-21 17:32:00,
2013-05-21 11:43:00,78.0,35.0,29.79,WSW,243,0.0,6.0,21,0.00,,,0.00,,2013-05-21 17:43:00,
2013-05-21 11:52:00,78.0,35.0,29.79,WSW,243,0.0,6.0,21,0.00,,,0.00,,2013-05-21 17:52:00,
2013-05-21 12:01:00,79.0,36.0,29.78,NE,41,2.0,7.0,21,0.00,,,0.00,,2013-05-21 18:01:00,
2013-05-21 12:12:00,79.0,36.0,29.78,NE,41,2.0,7.0,21,0.00,,,0.00,,2013-05-21 18:12:00,
2013-05-21 12:22:00,80.0,33.0,29.78,NNE,27,2.0,7.0,18,0.00,,,0.00,,2013-05-21 18:22:00,
2013-05-21 12:32:00,80.0,30.0,29.77,East,96,2.0,7.0,16,0.00,,,0.00,,2013-05-21 18:32:00,
2013-05-21 12:42:00,80.0,30.0,29.77,East,96,2.0,7.0,16,0.00,,,0.00,,2013-05-21 18:42:00,
2013-05-21 12:52:00,80.0,31.0,29.76,WNW,300,2.0,5.0,17,0.00,,,0.00,,2013-05-21 18:52:00,
2013-05-21 13:01:00,80.0,31.0,29.76,NE,51,2.0,5.0,17,0.00,,,0.00,,2013-05-21 19:01:00,
2013-05-21 13:11:00,80.0,31.0,29.76,NE,51,2.0,5.0,17,0.00,,,0.00,,2013-05-21 19:11:00,
2013-05-21 13:21:00,82.0,28.0,29.75,SE,138,0.0,4.0,14,0.00,,,0.00,,2013-05-21 19:21:00,
2013-05-21 13:32:00,82.0,24.0,29.75,NW,307,0.0,4.0,12,0.00,,,0.00,,2013-05-21 19:32:00,
2013-05-21 13:42:00,82.0,24.0,29.75,NW,307,0.0,4.0,12,0.00,,,0.00,,2013-05-21 19:42:00,
2013-05-21 13:52:00,83.0,25.0,29.74,NNE,26,0.0,7.0,12,0.00,,,0.00,,2013-05-21 19:52:00,
2013-05-21 14:03:00,85.0,39.0,29.73,SW,229,0.0,3.0,20,0.00,,,0.00,,2013-05-21 20:03:00,
2013-05-21 14:11:00,85.0,39.0,29.73,SW,229,0.0,3.0,20,0.00,,,0.00,,2013-05-21 20:11:00,
2013-05-21 14:22:00,87.0,30.0,29.73,NNW,336,0.0,6.0,13,0.00,,,0.00,,2013-05-21 20:22:00,
2013-05-21 14:32:00,86.0,25.0,29.72,NW,316,1.0,4.0,11,0.00,,,0.00,,2013-05-21 20:32:00,
2013-05-21 14:42:00,86.0,25.0,29.72,NW,316,1.0,4.0,11,0.00,,,0.00,,2013-05-21 20:42:00,
2013-05-21 14:52:00,85.0,34.0,29.71,NNE,21,1.0,4.0,16,0.00,,,0.00,,2013-05-21 20:52:00,
2013-05-21 15:02:00,87.0,35.0,29.71,NW,321,0.0,2.0,16,0.00,,,0.00,,2013-05-21 21:02:00,
2013-05-21 15:11:00,87.0,35.0,29.71,NW,321,0.0,2.0,16,0.00,,,0.00,,2013-05-21 21:11:00,
2013-05-21 15:21:00,86.0,23.0,29.70,East,89,1.0,5.0,10,0.00,,,0.00,,2013-05-21 21:21:00,
2013-05-21 15:32:00,85.0,32.0,29.69,SW,214,2.0,4.0,15,0.00,,,0.00,,2013-05-21 21:32:00,
2013-05-21 15:43:00,85.0,32.0,29.69,SW,214,2.0,4.0,15,0.00,,,0.00,,2013-05-21 21:43:00,
2013-05-21 15:54:00,87.0,28.0,29.68,WSW,245,1.0,6.0,12,0.00,,,0.00,,2013-05-21 21:54:00,
2013-05-21 16:02:00,88.0,25.0,29.68,North,6,0.0,4.0,10,0.00,,,0.00,,2013-05-21 22:02:00,
2013-05-21 16:12:00,88.0,25.0,29.68,North,6,0.0,4.0,10,0.00,,,0.00,,2013-05-21 22:12:00,
2013-05-21 16:22:00,87.0,21.0,29.67,ESE,116,2.0,7.0,9,0.00,,,0.00,,2013-05-21 22:22:00,
2013-05-21 16:33:00,87.0,28.0,29.67,SSW,212,0.0,5.0,12,0.00,,,0.00,,2013-05-21 22:33:00,
2013-05-21 16:42:00,87.0,28.0,29.67,SSW,212,0.0,5.0,12,0.00,,,0.00,,2013-05-21 22:42:00,
2013-05-21 16:53:00,87.0,21.0,29.66,NNE,18,1.0,4.0,9,0.00,,,0.00,,2013-05-21 22:53:00,
2013-05-21 17:02:00,86.0,23.0,29.65,SSW,197,0.0,6.0,10,0.00,,,0.00,,2013-05-21 23:02:00,
2013-05-21 17:12:00,86.0,23.0,29.65,SSW,197,0.0,6.0,10,0.00,,,0.00,,2013-05-21 23:12:00,
2013-05-21 17:22:00,87.0,37.0,29.65,NW,326,0.0,5.0,17,0.00,,,0.00,,2013-05-21 23:22:00,
2013-05-21 17:32:00,86.0,21.0,29.65,NE,46,0.0,4.0,9,0.00,,,0.00,,2013-05-21 23:32:00,
2013-05-21 17:42:00,86.0,21.0,29.64,WNW,288,2.0,4.0,9,0.00,,,0.00,,2013-05-21 23:42:00,
2013-05-21 17:52:00,86.0,21.0,29.64,WNW,288,2.0,4.0,9,0.00,,,0.00,,2013-05-21 23:52:00,
2013-05-21 18:01:00,85.0,34.0,29.64,SSE,159,0.0,5.0,16,0.00,,,0.00,,2013-05-22 00:01:00,
2013-05-21 18:11:00,85.0,34.0,29.64,SSE,159,0.0,5.0,16,0.00,,,0.00,,2013-05-22 00:11:00,
2013-05-21 18:21:00,85.0,20.0,29.63,SSW,196,1.0,6.0,9,0.00,,,0.00,,2013-05-22 00:21:00,
2013-05-21 18:32:00,84.0,24.0,29.63,NNE,30,0.0,3.0,11,0.00,,,0.00,,2013-05-22 00:32:00,
2013-05-21 18:41:00,84.0,24.0,29.63,NNE,30,0.0,3.0,11,0.00,,,0.00,,2013-05-22 00:41:00,
2013-05-21 18:51:00,84.0,24.0,29.63,NNE,30,0.0,3.0,11,0.00,,,0.00,,2013-05-22 00:51:00,
2013-05-21 19:01:00,82.0,20.0,29.63,SSE,154,0.0,5.0,10,0.00,,,0.00,,2013-05-22 01:01:00,
2013-05-21 19:11:00,82.0,20.0,29.63,SSE,154,0.0,5.0,10,0.00,,,0.00,,2013-05-22 01:11:00,
2013-05-21 19:21:00,81.0,19.0,29.63,SSW,195,0.0,4.0,10,0.00,,,0.00,,2013-05-22 01:21:00,
2013-05-21 19:32:00,80.0,13.0,29.63,SSE,153,0.0,3.0,8,0.00,,,0.00,,2013-05-22 01:32:00,
2013-05-21 19:42:00,80.0,13.0,29.63,SSE,153,0.0,3.0,8,0.00,,,0.00,,2013-05-22 01:42:00,
2013-05-21 19:52:00,79.0,22.0,29.63,NE,41,0.0,5.0,12,0.00,,,0.00,,2013-05-22 01:52:00,
2013-05-21 20:01:00,78.0,30.0,29.63,West,278,0.0,2.0,17,0.00,,,0.00,,2013-05-22 02:01:00,
2013-05-21 20:11:00,78.0,30.0,29.63,West,278,0.0,2.0,17,0.00,,,0.00,,2013-05-22 02:11:00,
2013-05-21 20:21:00,77.0,27.0,29.63,WNW,294,0.0,0.0,16,0.00,,,0.00,,2013-05-22 02:21:00,
2013-05-21 20:32:00,75.0,23.0,29.64,West,264,0.0,0.0,14,0.00,,,0.00,,2013-05-22 02:32:00,
2013-05-21 20:42:00,75.0,23.0,29.64,West,264,0.0,0.0,14,0.00,,,0.00,,2013-05-22 02:42:00,
2013-05-21 20:51:00,74.0,22.0,29.65,NNE,18,0.0,2.0,14,0.00,,,0.00,,2013-05-22 02:51:00,
2013-05-21 21:01:00,72.0,23.0,29.65,ENE,72,0.0,0.0,16,0.00,,,0.00,,2013-05-22 03:01:00,
2013-05-21 21:11:00,72.0,23.0,29.65,ENE,72,0.0,0.0,16,0.00,,,0.00,,2013-05-22 03:11:00,
2013-05-21 21:21:00,70.0,25.0,29.65,ENE,71,0.0,0.0,18,0.00,,,0.00,,2013-05-22 03:21:00,
2013-05-21 21:33:00,69.0,26.0,29.66,ENE,71,0.0,0.0,20,0.00,,,0.00,,2013-05-22 03:33:00,
2013-05-21 21:43:00,67.0,23.0,29.66,ENE,70,0.0,0.0,19,0.00,,,0.00,,2013-05-22 03:43:00,
2013-05-21 21:53:00,67.0,23.0,29.66,ENE,70,0.0,0.0,19,0.00,,,0.00,,2013-05-22 03:53:00,
2013-05-21 22:03:00,65.0,27.0,29.67,ENE,71,0.0,0.0,24,0.00,,,0.00,,2013-05-22 04:03:00,
2013-05-21 22:13:00,65.0,27.0,29.67,ENE,71,0.0,0.0,24,0.00,,,0.00,,2013-05-22 04:13:00,
2013-05-21 22:23:00,63.0,25.0,29.67,ENE,71,0.0,0.0,23,0.00,,,0.00,,2013-05-22 04:23:00,
2013-05-21 22:33:00,63.0,29.0,29.68,ENE,71,0.0,0.0,28,0.00,,,0.00,,2013-05-22 04:33:00,
2013-05-21 22:43:00,62.0,26.0,29.68,ENE,70,0.0,0.0,25,0.00,,,0.00,,2013-05-22 04:43:00,
2013-05-21 22:53:00,62.0,26.0,29.68,ENE,70,0.0,0.0,25,0.00,,,0.00,,2013-05-22 04:53:00,
2013-05-21 23:02:00,61.0,28.0,29.68,ENE,71,0.0,0.0,28,0.00,,,0.00,,2013-05-22 05:02:00,
2013-05-21 23:12:00,61.0,28.0,29.68,ENE,71,0.0,0.0,28,0.00,,,0.00,,2013-05-22 05:12:00,
2013-05-21 23:21:00,60.0,26.0,29.68,ENE,71,0.0,0.0,27,0.00,,,0.00,,2013-05-22 05:21:00,
2013-05-21 23:32:00,59.0,25.0,29.68,ENE,71,0.0,0.0,27,0.00,,,0.00,,2013-05-22 05:32:00,
2013-05-21 23:42:00,59.0,25.0,29.68,ENE,71,0.0,0.0,27,0.00,,,0.00,,2013-05-22 05:42:00,
2013-05-21 23:51:00,58.0,27.0,29.68,ENE,71,0.0,0.0,30,0.00,,,0.00,,2013-05-22 05:51:00,